createdAt,value
2023-04-18T00:00:20.937Z,10.10
2023-04-18T00:02:51.301Z,9.00
2023-04-18T00:05:20.853Z,9.55
2023-04-18T00:07:48.827Z,12.73
2023-04-18T00:10:16.569Z,8.10
2023-04-18T00:12:44.081Z,12.25
2023-04-18T00:15:12.703Z,9.57
2023-04-18T00:17:40.843Z,7.18
2023-04-18T00:20:10.698Z,8.20
2023-04-18T00:22:42.321Z,10.80
2023-04-18T00:25:11.113Z,8.82
2023-04-18T00:27:39.220Z,8.77
2023-04-18T00:30:07.674Z,9.48
2023-04-18T00:32:35.409Z,8.90
2023-04-18T00:35:02.953Z,8.35
2023-04-18T00:37:30.923Z,9.55
2023-04-18T00:39:59.838Z,9.68
2023-04-18T00:42:28.715Z,6.82
2023-04-18T00:49:51.038Z,12.05
2023-04-18T00:52:19.691Z,8.63
2023-04-18T00:54:48.186Z,9.63
2023-04-18T00:57:17.345Z,11.18
2023-04-18T00:59:44.935Z,11.48
2023-04-18T01:02:12.444Z,7.10
2023-04-18T01:04:40.174Z,10.68
2023-04-18T01:07:08.377Z,6.65
2023-04-18T01:09:36.093Z,5.10
2023-04-18T01:12:04.150Z,6.82
2023-04-18T01:14:32.928Z,8.75
2023-04-18T01:19:28.895Z,10.88
2023-04-18T01:21:57.010Z,12.02
2023-04-18T01:24:26.747Z,6.25
2023-04-18T01:26:54.185Z,8.85
2023-04-18T01:29:21.687Z,12.00
2023-04-18T01:31:49.180Z,9.52
2023-04-18T01:34:17.711Z,11.68
2023-04-18T01:36:46.058Z,9.13
2023-04-18T01:39:14.560Z,8.10
2023-04-18T01:41:43.594Z,7.70
2023-04-18T01:44:11.310Z,7.00
2023-04-18T01:46:39.861Z,6.95
2023-04-18T01:49:07.470Z,7.47
2023-04-18T01:51:34.955Z,9.18
2023-04-18T01:54:02.445Z,10.00
2023-04-18T01:56:29.921Z,9.73
2023-04-18T01:58:58.741Z,8.82
2023-04-18T02:03:53.834Z,5.63
2023-04-18T02:06:21.655Z,8.82
2023-04-18T02:08:49.077Z,9.38
2023-04-18T02:11:16.539Z,7.88
2023-04-18T02:13:44.078Z,7.97
2023-04-18T02:16:14.237Z,8.02
2023-04-18T02:18:44.186Z,9.85
2023-04-18T02:21:11.821Z,8.05
2023-04-18T02:23:39.295Z,11.00
2023-04-18T02:26:06.780Z,12.25
2023-04-18T02:28:34.261Z,9.50
2023-04-18T02:31:01.741Z,8.30
2023-04-18T02:33:30.608Z,8.43
2023-04-18T02:40:52.734Z,8.43
2023-04-18T02:43:20.160Z,8.52
2023-04-18T02:45:47.676Z,11.70
2023-04-18T02:48:15.338Z,1.92
2023-04-18T02:50:44.257Z,9.57
2023-04-18T02:58:06.532Z,6.78
2023-04-18T03:00:33.985Z,6.70
2023-04-18T03:03:01.672Z,9.00
2023-04-18T03:05:29.288Z,9.88
2023-04-18T03:07:58.137Z,10.27
2023-04-18T03:12:52.862Z,9.70
2023-04-18T03:15:20.552Z,7.47
2023-04-18T03:17:48.019Z,4.57
2023-04-18T03:20:15.701Z,7.05
2023-04-18T03:22:43.197Z,7.18
2023-04-18T03:25:12.134Z,5.22
2023-04-18T03:27:39.570Z,9.73
2023-04-18T03:30:08.221Z,6.70
2023-04-18T03:32:36.207Z,8.13
2023-04-18T03:35:04.071Z,11.13
2023-04-18T03:37:31.550Z,8.18
2023-04-18T03:39:59.054Z,8.93
2023-04-18T03:42:27.820Z,9.15
2023-04-18T03:44:55.242Z,6.40
2023-04-18T03:47:22.887Z,9.80
2023-04-18T03:49:50.578Z,10.13
2023-04-18T03:52:20.022Z,7.80
2023-04-18T03:54:47.487Z,9.82
2023-04-18T03:57:15.039Z,12.05
2023-04-18T03:59:45.173Z,7.82
2023-04-18T04:02:14.300Z,13.25
2023-04-18T04:04:41.864Z,10.63
2023-04-18T04:07:09.515Z,9.10
2023-04-18T04:09:36.971Z,9.63
2023-04-18T04:12:04.633Z,8.00
2023-04-18T04:14:32.342Z,8.43
2023-04-18T04:17:01.307Z,8.20
2023-04-18T04:19:28.795Z,8.63
2023-04-18T04:21:56.229Z,10.60
2023-04-18T04:24:23.653Z,7.82
2023-04-18T04:26:51.303Z,8.52
2023-04-18T04:29:19.004Z,10.07
2023-04-18T04:31:46.493Z,7.70
2023-04-18T04:34:16.620Z,9.40
2023-04-18T04:36:44.482Z,9.95
2023-04-18T04:39:12.748Z,8.10
2023-04-18T04:41:40.589Z,11.10
2023-04-18T04:44:09.433Z,12.90
2023-04-18T04:49:06.884Z,9.38
2023-04-18T04:51:35.810Z,8.82
2023-04-18T04:58:57.920Z,9.43
2023-04-18T05:01:25.648Z,8.02
2023-04-18T05:03:53.315Z,9.88
2023-04-18T05:06:22.570Z,13.68
2023-04-18T05:08:51.844Z,15.05
2023-04-18T05:11:19.422Z,10.60
2023-04-18T05:13:46.899Z,11.80
2023-04-18T05:16:14.494Z,12.52
2023-04-18T05:18:42.059Z,11.85
2023-04-18T05:21:09.538Z,12.40
2023-04-18T05:23:37.184Z,9.90
2023-04-18T05:26:06.447Z,15.15
2023-04-18T05:28:34.022Z,13.55
2023-04-18T05:31:02.057Z,11.15
2023-04-18T05:33:29.617Z,12.73
2023-04-18T05:35:57.386Z,10.98
2023-04-18T05:38:25.017Z,11.10
2023-04-18T05:40:55.333Z,9.85
2023-04-18T05:43:24.337Z,13.32
2023-04-18T05:45:52.828Z,14.32
2023-04-18T05:48:21.545Z,11.65
2023-04-18T05:50:48.969Z,12.15
2023-04-18T05:53:16.674Z,12.35
2023-04-18T05:55:46.348Z,14.73
2023-04-18T05:58:13.835Z,13.98
2023-04-18T06:00:42.779Z,13.10
2023-04-18T06:03:11.302Z,12.85
2023-04-18T06:05:40.887Z,12.77
2023-04-18T06:08:08.440Z,15.88
2023-04-18T06:10:38.889Z,19.25
2023-04-18T06:13:06.632Z,14.63
2023-04-18T06:15:35.219Z,11.05
2023-04-18T06:18:04.170Z,14.25
2023-04-18T06:20:31.665Z,17.13
2023-04-18T06:22:59.165Z,13.48
2023-04-18T06:25:26.632Z,18.42
2023-04-18T06:27:54.122Z,15.38
2023-04-18T06:30:22.258Z,12.77
2023-04-18T06:32:49.898Z,12.40
2023-04-18T06:35:18.971Z,17.17
2023-04-18T06:37:46.708Z,11.57
2023-04-18T06:40:14.804Z,12.77
2023-04-18T06:42:43.195Z,11.32
2023-04-18T06:45:11.960Z,14.52
2023-04-18T06:50:08.411Z,16.15
2023-04-18T06:55:09.012Z,10.15
2023-04-18T06:57:36.531Z,11.30
2023-04-18T07:00:04.801Z,17.90
2023-04-18T07:02:32.541Z,13.07
2023-04-18T07:05:00.192Z,14.20
2023-04-18T07:07:27.735Z,14.15
2023-04-18T07:09:56.611Z,12.82
2023-04-18T07:12:24.100Z,16.80
2023-04-18T07:14:51.836Z,21.30
2023-04-18T07:17:19.439Z,15.48
2023-04-18T07:19:46.952Z,14.57
2023-04-18T07:22:14.442Z,12.43
2023-04-18T07:24:42.127Z,23.52
2023-04-18T07:27:10.948Z,17.08
2023-04-18T07:29:38.444Z,19.52
2023-04-18T07:32:08.120Z,10.05
2023-04-18T07:34:37.381Z,16.58
2023-04-18T07:37:04.941Z,11.20
2023-04-18T07:39:35.785Z,14.25
2023-04-18T07:42:04.065Z,14.45
2023-04-18T07:44:35.827Z,13.45
2023-04-18T07:47:03.509Z,16.95
2023-04-18T07:49:31.184Z,14.52
2023-04-18T07:51:58.658Z,13.85
2023-04-18T07:54:26.181Z,13.32
2023-04-18T07:56:53.820Z,14.70
2023-04-18T07:59:21.289Z,9.10
2023-04-18T08:01:50.077Z,11.20
2023-04-18T08:04:17.797Z,7.75
2023-04-18T08:06:45.484Z,12.30
2023-04-18T08:09:13.242Z,12.23
2023-04-18T08:11:43.310Z,9.43
2023-04-18T08:14:10.989Z,10.13
2023-04-18T08:16:38.549Z,11.15
2023-04-18T08:19:07.465Z,11.10
2023-04-18T08:21:34.926Z,11.75
2023-04-18T08:24:02.383Z,9.27
2023-04-18T08:26:29.858Z,9.82
2023-04-18T08:28:57.644Z,8.73
2023-04-18T08:31:25.130Z,6.55
2023-04-18T08:33:52.638Z,9.73
2023-04-18T08:36:21.885Z,10.10
2023-04-18T08:38:49.346Z,6.60
2023-04-18T08:41:21.719Z,8.60
2023-04-18T08:43:49.751Z,8.52
2023-04-18T08:46:17.453Z,8.32
2023-04-18T08:48:46.677Z,10.80
2023-04-18T08:51:14.163Z,9.00
2023-04-18T08:53:45.001Z,6.28
2023-04-18T08:56:14.587Z,8.35
2023-04-18T08:58:42.080Z,10.98
2023-04-18T09:01:10.128Z,10.88
2023-04-18T09:03:39.988Z,11.57
2023-04-18T09:06:12.499Z,6.95
2023-04-18T09:08:43.673Z,9.13
2023-04-18T09:11:28.789Z,21.08
2023-04-18T09:13:58.552Z,11.38
2023-04-18T09:16:27.487Z,6.45
2023-04-18T09:19:10.820Z,7.43
2023-04-18T09:21:40.720Z,9.20
2023-04-18T09:24:20.727Z,7.97
2023-04-18T09:26:49.775Z,10.07
2023-04-18T09:29:18.441Z,8.45
2023-04-18T09:31:59.698Z,7.85
2023-04-18T09:34:27.774Z,8.57
2023-04-18T09:37:09.349Z,8.10
2023-04-18T09:39:39.887Z,9.48
2023-04-18T09:42:08.343Z,7.60
2023-04-18T09:44:35.849Z,6.05
2023-04-18T09:47:03.379Z,9.07
2023-04-18T09:49:30.917Z,6.85
2023-04-18T09:51:59.010Z,7.50
2023-04-18T09:54:26.804Z,8.13
2023-04-18T09:56:56.516Z,6.63
2023-04-18T09:59:34.909Z,7.63
2023-04-18T10:02:06.707Z,6.55
2023-04-18T10:04:35.482Z,11.07
2023-04-18T10:07:03.533Z,7.57
2023-04-18T10:09:33.728Z,10.48
2023-04-18T10:12:03.382Z,7.68
2023-04-18T10:14:34.689Z,9.98
2023-04-18T10:17:02.317Z,7.05
2023-04-18T10:19:30.856Z,6.78
2023-04-18T10:22:00.395Z,4.18
2023-04-18T10:24:46.930Z,4.70
2023-04-18T10:27:16.175Z,5.43
2023-04-18T10:29:51.972Z,6.63
2023-04-18T10:32:20.853Z,5.78
2023-04-18T10:34:48.584Z,5.45
2023-04-18T10:37:18.722Z,4.65
2023-04-18T10:40:05.631Z,4.85
2023-04-18T10:43:02.571Z,4.20
2023-04-18T10:45:36.151Z,7.18
2023-04-18T10:48:23.719Z,7.32
2023-04-18T10:51:14.012Z,6.53
2023-04-18T10:53:47.748Z,6.93
2023-04-18T10:56:16.470Z,5.78
2023-04-18T11:03:47.204Z,3.83
2023-04-18T11:06:14.779Z,6.07
2023-04-18T11:08:42.463Z,6.97
2023-04-18T11:11:11.284Z,8.10
2023-04-18T11:13:38.813Z,6.28
2023-04-18T11:16:08.580Z,5.15
2023-04-18T11:18:42.325Z,5.85
2023-04-18T11:21:09.832Z,4.78
2023-04-18T11:23:38.545Z,3.78
2023-04-18T11:26:07.422Z,6.10
2023-04-18T11:28:34.864Z,1.58
2023-04-18T11:31:02.967Z,7.38
2023-04-18T11:33:32.097Z,6.50
2023-04-18T11:35:59.832Z,4.93
2023-04-18T11:38:30.492Z,5.93
2023-04-18T11:40:58.192Z,3.38
2023-04-18T11:43:26.446Z,6.07
2023-04-18T11:45:54.968Z,5.88
2023-04-18T11:50:51.977Z,7.20
2023-04-18T11:53:32.921Z,6.53
2023-04-18T11:56:00.536Z,7.07
2023-04-18T11:58:32.697Z,5.63
2023-04-18T12:01:00.594Z,4.95
2023-04-18T12:03:29.098Z,5.15
2023-04-18T12:08:29.001Z,16.85
2023-04-18T12:10:56.629Z,12.55
2023-04-18T12:13:32.212Z,11.30
2023-04-18T12:16:03.181Z,7.90
2023-04-18T12:18:31.337Z,7.03
2023-04-18T12:21:02.341Z,7.00
2023-04-18T12:23:32.729Z,7.82
2023-04-18T12:26:01.976Z,12.68
2023-04-18T12:28:29.538Z,8.60
2023-04-18T12:30:57.236Z,11.05
2023-04-18T12:33:24.748Z,10.38
2023-04-18T12:35:53.182Z,5.43
2023-04-18T12:38:20.969Z,4.93
2023-04-18T12:40:50.195Z,7.13
2023-04-18T12:43:17.811Z,10.60
2023-04-18T12:45:46.461Z,5.43
2023-04-18T12:48:14.111Z,6.40
2023-04-18T12:50:41.605Z,9.45
2023-04-18T12:53:09.056Z,5.38
2023-04-18T12:55:37.542Z,7.68
2023-04-18T12:58:06.329Z,6.20
2023-04-18T13:00:34.023Z,7.90
2023-04-18T13:03:01.614Z,8.70
2023-04-18T13:05:33.529Z,6.80
2023-04-18T13:08:15.173Z,5.72
2023-04-18T13:10:44.229Z,7.90
2023-04-18T13:13:13.260Z,4.13
2023-04-18T13:15:41.049Z,8.80
2023-04-18T13:18:08.611Z,6.25
2023-04-18T13:20:36.630Z,6.53
2023-04-18T13:23:04.466Z,6.90
2023-04-18T13:25:32.284Z,8.05
2023-04-18T13:28:00.776Z,9.23
2023-04-18T13:30:30.089Z,8.95
2023-04-18T13:32:57.644Z,8.75
2023-04-18T13:35:25.152Z,11.73
2023-04-18T13:37:52.650Z,10.80
2023-04-18T13:40:20.303Z,8.95
2023-04-18T13:42:47.745Z,9.52
2023-04-18T13:45:15.468Z,9.60
2023-04-18T13:47:44.321Z,7.55
2023-04-18T13:50:11.924Z,8.63
2023-04-18T13:52:39.380Z,6.85
2023-04-18T13:55:08.190Z,6.72
2023-04-18T13:57:37.206Z,6.38
2023-04-18T14:00:09.044Z,7.13
2023-04-18T14:02:36.880Z,5.95
2023-04-18T14:05:06.894Z,7.35
2023-04-18T14:07:34.446Z,6.07
2023-04-18T14:10:02.043Z,6.45
2023-04-18T14:12:29.635Z,8.00
2023-04-18T14:14:57.078Z,4.65
2023-04-18T14:17:24.574Z,9.30
2023-04-18T14:19:52.061Z,6.80
2023-04-18T14:22:21.019Z,7.95
2023-04-18T14:24:52.121Z,8.65
2023-04-18T14:27:19.573Z,5.50
2023-04-18T14:29:48.745Z,7.75
2023-04-18T14:32:16.230Z,8.73
2023-04-18T14:34:43.737Z,7.57
2023-04-18T14:37:11.257Z,9.60
2023-04-18T14:39:40.080Z,6.68
2023-04-18T14:42:07.564Z,5.65
2023-04-18T14:44:34.999Z,7.07
2023-04-18T14:47:02.703Z,7.45
2023-04-18T14:49:30.181Z,7.28
2023-04-18T14:51:57.618Z,9.00
2023-04-18T14:54:25.055Z,7.20
2023-04-18T14:56:53.852Z,7.30
2023-04-18T14:59:21.341Z,6.20
2023-04-18T15:01:48.983Z,3.83
2023-04-18T15:04:16.737Z,7.85
2023-04-18T15:06:44.574Z,7.18
2023-04-18T15:09:12.010Z,7.25
2023-04-18T15:11:39.434Z,8.00
2023-04-18T15:14:10.147Z,8.60
2023-04-18T15:16:39.699Z,7.63
2023-04-18T15:19:07.437Z,7.20
2023-04-18T15:21:34.885Z,5.07
2023-04-18T15:24:02.365Z,3.53
2023-04-18T15:26:32.324Z,8.07
2023-04-18T15:29:02.579Z,8.02
2023-04-18T15:31:31.517Z,6.05
2023-04-18T15:33:59.342Z,5.50
2023-04-18T15:36:27.627Z,8.93
2023-04-18T15:38:55.285Z,5.53
2023-04-18T15:41:23.123Z,8.70
2023-04-18T15:43:50.631Z,12.93
2023-04-18T15:46:18.134Z,12.98
2023-04-18T15:48:46.960Z,21.60
2023-04-18T15:51:14.538Z,13.98
2023-04-18T15:53:41.992Z,9.48
2023-04-18T15:56:09.780Z,9.82
2023-04-18T15:58:37.251Z,12.18
2023-04-18T16:01:06.152Z,9.57
2023-04-18T16:03:33.823Z,9.48
2023-04-18T16:06:02.848Z,10.38
2023-04-18T16:08:32.618Z,10.10
2023-04-18T16:11:00.700Z,8.13
2023-04-18T16:13:28.161Z,7.60
2023-04-18T16:15:55.636Z,9.23
2023-04-18T16:18:23.217Z,6.95
2023-04-18T16:20:51.671Z,6.47
2023-04-18T16:23:21.055Z,8.48
2023-04-18T16:25:49.294Z,7.75
2023-04-18T16:28:16.818Z,6.65
2023-04-18T16:30:45.627Z,6.95
2023-04-18T16:33:13.278Z,6.70
2023-04-18T16:35:40.977Z,7.57
2023-04-18T16:38:08.597Z,11.02
2023-04-18T16:40:37.882Z,9.20
2023-04-18T16:43:05.406Z,9.90
2023-04-18T16:45:33.512Z,7.13
2023-04-18T16:48:01.070Z,9.32
2023-04-18T16:50:28.631Z,9.40
2023-04-18T16:52:56.080Z,12.00
2023-04-18T16:55:23.697Z,8.88
2023-04-18T16:57:52.502Z,9.38
2023-04-18T17:00:20.087Z,10.48
2023-04-18T17:02:48.163Z,10.70
2023-04-18T17:05:15.683Z,11.00
2023-04-18T17:07:44.919Z,5.65
2023-04-18T17:10:12.711Z,10.43
2023-04-18T17:12:40.214Z,10.60
2023-04-18T17:15:09.667Z,8.73
2023-04-18T17:17:37.217Z,6.63
2023-04-18T17:20:07.186Z,9.82
2023-04-18T17:22:35.395Z,8.85
2023-04-18T17:25:03.192Z,4.95
2023-04-18T17:27:30.925Z,12.00
2023-04-18T17:30:00.767Z,12.40
2023-04-18T17:32:29.672Z,8.98
2023-04-18T17:34:57.196Z,6.22
2023-04-18T17:37:24.633Z,12.27
2023-04-18T17:39:52.075Z,12.00
2023-04-18T17:42:20.994Z,12.13
2023-04-18T17:44:48.444Z,13.10
2023-04-18T17:47:18.016Z,8.70
2023-04-18T17:49:46.841Z,12.00
2023-04-18T17:52:14.395Z,11.70
2023-04-18T17:54:41.914Z,13.27
2023-04-18T17:57:09.353Z,9.60
2023-04-18T17:59:37.656Z,13.15
2023-04-18T18:02:05.521Z,16.58
2023-04-18T18:04:33.142Z,11.85
2023-04-18T18:07:02.036Z,11.30
2023-04-18T18:09:29.600Z,10.68
2023-04-18T18:11:57.316Z,12.30
2023-04-18T18:14:24.858Z,11.10
2023-04-18T18:16:52.440Z,13.52
2023-04-18T18:19:20.839Z,11.23
2023-04-18T18:21:48.349Z,10.05
2023-04-18T18:24:18.549Z,13.40
2023-04-18T18:26:46.120Z,16.45
2023-04-18T18:29:13.806Z,11.98
2023-04-18T18:31:42.477Z,10.98
2023-04-18T18:34:10.077Z,10.70
2023-04-18T18:36:37.744Z,12.38
2023-04-18T18:39:06.432Z,12.35
2023-04-18T18:44:02.936Z,14.07
2023-04-18T18:46:30.894Z,15.10
2023-04-18T18:48:58.506Z,11.95
2023-04-18T18:51:26.169Z,11.25
2023-04-18T18:53:53.632Z,10.88
2023-04-18T18:56:21.148Z,13.52
2023-04-18T18:58:49.919Z,11.88
2023-04-18T19:01:17.442Z,11.63
2023-04-18T19:03:45.026Z,13.95
2023-04-18T19:06:12.604Z,10.77
2023-04-18T19:08:40.200Z,17.02
2023-04-18T19:11:07.935Z,11.88
2023-04-18T19:13:35.466Z,11.60
2023-04-18T19:16:04.333Z,12.23
2023-04-18T19:18:31.889Z,12.90
2023-04-18T19:20:59.452Z,10.15
2023-04-18T19:23:27.749Z,13.13
2023-04-18T19:25:55.216Z,12.18
2023-04-18T19:28:22.858Z,8.77
2023-04-18T19:30:50.789Z,13.32
2023-04-18T19:33:20.421Z,14.55
2023-04-18T19:35:47.986Z,13.63
2023-04-18T19:38:15.555Z,14.48
2023-04-18T19:40:43.064Z,11.18
2023-04-18T19:43:10.536Z,15.65
2023-04-18T19:45:41.512Z,11.73
2023-04-18T19:48:09.000Z,9.48
2023-04-18T19:50:39.850Z,10.05
2023-04-18T19:53:07.404Z,14.35
2023-04-18T19:55:34.893Z,9.63
2023-04-18T19:58:02.364Z,13.75
2023-04-18T20:00:30.109Z,13.05
2023-04-18T20:02:58.707Z,13.75
2023-04-18T20:07:55.184Z,12.20
2023-04-18T20:10:25.906Z,13.05
2023-04-18T20:12:53.330Z,10.00
2023-04-18T20:15:20.970Z,11.73
2023-04-18T20:17:48.616Z,9.80
2023-04-18T20:20:16.144Z,13.43
2023-04-18T20:22:44.675Z,10.15
2023-04-18T20:25:13.532Z,12.43
2023-04-18T20:27:41.059Z,11.73
2023-04-18T20:30:09.417Z,12.30
2023-04-18T20:32:37.037Z,12.07
2023-04-18T20:35:05.162Z,12.63
2023-04-18T20:37:36.401Z,9.32
2023-04-18T20:40:07.842Z,9.93
2023-04-18T20:42:38.581Z,9.57
2023-04-18T20:45:10.999Z,10.02
2023-04-18T20:47:41.120Z,9.55
2023-04-18T20:50:09.679Z,8.85
2023-04-18T20:52:37.335Z,10.38
2023-04-18T20:55:05.474Z,12.10
2023-04-18T20:57:32.907Z,11.63
2023-04-18T21:00:01.976Z,13.70
2023-04-18T21:02:29.721Z,12.70
2023-04-18T21:04:59.552Z,11.85
2023-04-18T21:07:27.332Z,10.23
2023-04-18T21:09:54.834Z,10.18
2023-04-18T21:12:22.275Z,15.77
2023-04-18T21:14:49.866Z,15.88
2023-04-18T21:17:18.859Z,12.05
2023-04-18T21:19:46.403Z,13.02
2023-04-18T21:22:14.608Z,10.25
2023-04-18T21:24:42.166Z,7.70
2023-04-18T21:27:10.833Z,12.25
2023-04-18T21:29:38.303Z,13.20
2023-04-18T21:32:06.148Z,9.95
2023-04-18T21:34:34.988Z,11.52
2023-04-18T21:37:02.481Z,13.65
2023-04-18T21:39:29.960Z,12.40
2023-04-18T21:41:57.473Z,11.25
2023-04-18T21:44:24.945Z,12.40
2023-04-18T21:46:52.404Z,12.02
2023-04-18T21:49:20.153Z,12.93
2023-04-18T21:51:49.761Z,11.75
2023-04-18T21:54:17.341Z,11.48
2023-04-18T21:56:44.774Z,11.00
2023-04-18T21:59:14.172Z,10.00
2023-04-18T22:01:41.697Z,12.32
2023-04-18T22:04:09.301Z,9.00
2023-04-18T22:06:36.954Z,15.70
2023-04-18T22:09:06.197Z,6.97
2023-04-18T22:11:33.661Z,10.05
2023-04-18T22:14:03.694Z,10.60
2023-04-18T22:16:31.185Z,9.20
2023-04-18T22:18:58.629Z,11.52
2023-04-18T22:21:26.349Z,11.15
2023-04-18T22:23:53.911Z,11.18
2023-04-18T22:26:22.734Z,11.18
2023-04-18T22:31:17.772Z,12.05
2023-04-18T22:33:47.486Z,12.27
2023-04-18T22:36:15.012Z,12.77
2023-04-18T22:38:42.455Z,9.98
2023-04-18T22:41:09.893Z,12.73
2023-04-18T22:43:38.665Z,8.98
2023-04-18T22:48:34.965Z,8.98
2023-04-18T22:51:02.658Z,10.98
2023-04-18T22:53:30.130Z,10.13
2023-04-18T22:55:58.073Z,11.32
2023-04-18T22:58:25.660Z,9.95
2023-04-18T23:00:54.619Z,11.43
2023-04-18T23:03:22.402Z,10.05
2023-04-18T23:05:49.979Z,12.55
2023-04-18T23:08:18.628Z,9.95
2023-04-18T23:10:46.132Z,8.07
2023-04-18T23:13:14.106Z,9.57
2023-04-18T23:15:41.573Z,9.07
2023-04-18T23:18:10.406Z,7.55
2023-04-18T23:23:05.844Z,9.57
2023-04-18T23:25:34.103Z,10.35
2023-04-18T23:28:01.644Z,8.70
2023-04-18T23:30:29.236Z,10.35
2023-04-18T23:32:56.805Z,7.70
2023-04-18T23:35:25.592Z,10.15
2023-04-18T23:40:24.647Z,7.35
2023-04-18T23:42:52.110Z,8.85
2023-04-18T23:45:19.631Z,8.90
2023-04-18T23:47:47.185Z,8.48
2023-04-18T23:50:14.638Z,8.95
2023-04-18T23:52:43.642Z,9.93
2023-04-18T23:55:11.191Z,11.13
2023-04-18T23:57:38.643Z,9.65
